Winnemucca Municipal Airport
KWMC : now visible

Airfield :











YOU CAN JOIN US ON...

 
LOGIN :

Register | Disclaimer

   EN    FR    IT 

 









Legend :    VFR   Marginal VFR   IFR   Intensive IFR   Very Intensive IFR
Visi :
Ceiling :
>= 8 km
>= 3000ft
5 to 8 km
1000 to 3000 ft
1500m to 5 km
500 to 1000 ft
800 to 1500m
200 to 500 ft
< 800m
< 200 ft
Symbols :   Thunderstorms  Fog  Heavy snow  Heavy precipitations  Wind > 20 kt






- Airport Elevation : 4308 ft


KWMC - Winnemucca Municipal

CURRENT METAR :
  • 150156Z AUTO 27003KT 10SM OVC055 02/M06 A2987 RMK AO2 SLP123 T00221061

EXPIRED METARs :
  • 150056Z AUTO 28004KT 10SM OVC060 02/M06 A2989 RMK AO2 SLP127 T00221056
  • 142356Z AUTO 30003KT 10SM BKN055 04/M08 A2991 RMK AO2 SLP126 T00441078 10061 20033 56013

TAF KWMC
Valid from the 15 at 00:00 until the 16 at 00:00 UTC


142320Z 1500/1524 25004KT P6SM BKN050
FM150700 VRB04KT P6SM VCSH SCT030 BKN050
FM151100 32005KT 6SM -SN OVC025
FM151500 27006KT P6SM SCT025 BKN050



MET'MAP, your aeronautical weather chart ! - Copyright ORBIFLY December 2007 - Disclaimer

ORBIFLY MET'MAP TEAM :

Programming & Development : Alexandra Zaïnal
Concept & original design : Baudouin d'Aumeries
Assistance for programming : Marc-Olivier Méhu
Technical & hardware support : Manuel Goepfert

Contact : metmap@orbifly.com




SOURCES & CREDITS :

   NOAA       Earth
Advisory